createdAt,value
2022-11-22T00:00:41.110Z,941.74
2022-11-22T00:01:41.259Z,941.74
2022-11-22T00:02:41.109Z,941.77
2022-11-22T00:03:41.079Z,941.77
2022-11-22T00:04:41.070Z,941.73
2022-11-22T00:05:41.060Z,941.68
2022-11-22T00:06:41.046Z,941.70
2022-11-22T00:07:41.106Z,941.73
2022-11-22T00:08:41.054Z,941.79
2022-11-22T00:09:44.021Z,941.77
2022-11-22T00:10:41.027Z,941.79
2022-11-22T00:11:41.024Z,941.79
2022-11-22T00:12:41.012Z,941.79
2022-11-22T00:13:40.974Z,941.78
2022-11-22T00:14:40.992Z,941.78
2022-11-22T00:15:42.097Z,941.73
2022-11-22T00:16:40.984Z,941.72
2022-11-22T00:17:40.985Z,941.70
2022-11-22T00:18:40.997Z,941.65
2022-11-22T00:19:40.936Z,941.67
2022-11-22T00:20:40.934Z,941.70
2022-11-22T00:21:40.931Z,941.73
2022-11-22T00:22:44.539Z,941.74
2022-11-22T00:23:40.894Z,941.78
2022-11-22T00:24:43.895Z,941.75
2022-11-22T00:25:40.922Z,941.69
2022-11-22T00:26:40.835Z,941.73
2022-11-22T00:27:40.864Z,941.75
2022-11-22T00:28:40.870Z,941.73
2022-11-22T00:29:40.828Z,941.72
2022-11-22T00:30:40.828Z,941.74
2022-11-22T00:31:40.818Z,941.72
2022-11-22T00:32:40.805Z,941.71
2022-11-22T00:33:40.798Z,941.72
2022-11-22T00:34:40.792Z,941.70
2022-11-22T00:35:40.781Z,941.74
2022-11-22T00:36:40.818Z,941.68
2022-11-22T00:37:40.728Z,941.69
2022-11-22T00:38:40.727Z,941.71
2022-11-22T00:39:43.737Z,941.67
2022-11-22T00:40:40.720Z,941.65
2022-11-22T00:41:40.720Z,941.70
2022-11-22T00:42:40.679Z,941.71
2022-11-22T00:43:40.690Z,941.72
2022-11-22T00:44:40.713Z,941.66
2022-11-22T00:45:40.669Z,941.70
2022-11-22T00:46:40.641Z,941.65
2022-11-22T00:47:40.658Z,941.66
2022-11-22T00:48:40.640Z,941.67
2022-11-22T00:49:40.639Z,941.69
2022-11-22T00:50:40.610Z,941.74
2022-11-22T00:51:40.611Z,941.78
2022-11-22T00:52:40.608Z,941.77
2022-11-22T00:53:40.592Z,941.76
2022-11-22T00:54:43.575Z,941.79
2022-11-22T00:55:41.719Z,941.78
2022-11-22T00:56:40.570Z,941.77
2022-11-22T00:57:40.541Z,941.79
2022-11-22T00:58:40.523Z,941.81
2022-11-22T00:59:40.531Z,941.83
2022-11-22T01:00:40.631Z,941.80
2022-11-22T01:01:40.597Z,941.81
2022-11-22T01:02:40.512Z,941.83
2022-11-22T01:03:40.488Z,941.83
2022-11-22T01:04:40.494Z,941.85
2022-11-22T01:05:40.675Z,941.81
2022-11-22T01:06:40.461Z,941.82
2022-11-22T01:07:40.499Z,941.85
2022-11-22T01:08:40.521Z,941.86
2022-11-22T01:09:43.432Z,941.88
2022-11-22T01:10:40.437Z,941.91
2022-11-22T01:11:40.431Z,941.95
2022-11-22T01:12:40.415Z,941.96
2022-11-22T01:13:40.352Z,941.98
2022-11-22T01:14:40.373Z,942.00
2022-11-22T01:15:40.367Z,942.05
2022-11-22T01:16:40.334Z,942.07
2022-11-22T01:17:40.341Z,942.08
2022-11-22T01:18:40.396Z,942.09
2022-11-22T01:19:41.256Z,942.11
2022-11-22T01:20:40.304Z,942.05
2022-11-22T01:21:40.312Z,942.08
2022-11-22T01:22:40.325Z,942.13
2022-11-22T01:23:40.282Z,942.10
2022-11-22T01:24:43.266Z,942.14
2022-11-22T01:25:40.285Z,942.15
2022-11-22T01:26:40.224Z,942.13
2022-11-22T01:27:40.275Z,942.17
2022-11-22T01:28:40.227Z,942.16
2022-11-22T01:29:40.231Z,942.22
2022-11-22T01:30:40.199Z,942.22
2022-11-22T01:31:40.206Z,942.27
2022-11-22T01:32:40.196Z,942.24
2022-11-22T01:33:40.184Z,942.24
2022-11-22T01:34:40.169Z,942.24
2022-11-22T01:35:40.128Z,942.24
2022-11-22T01:36:40.158Z,942.26
2022-11-22T01:37:40.149Z,942.23
2022-11-22T01:38:40.105Z,942.29
2022-11-22T01:39:43.087Z,942.33
2022-11-22T01:40:40.098Z,942.32
2022-11-22T01:41:40.068Z,942.33
2022-11-22T01:42:40.060Z,942.36
2022-11-22T01:43:40.079Z,942.35
2022-11-22T01:44:40.050Z,942.34
2022-11-22T01:45:40.071Z,942.34
2022-11-22T01:46:40.048Z,942.34
2022-11-22T01:47:40.030Z,942.34
2022-11-22T01:48:40.007Z,942.33
2022-11-22T01:49:39.990Z,942.29
2022-11-22T01:50:39.983Z,942.26
2022-11-22T01:51:39.973Z,942.28
2022-11-22T01:52:39.950Z,942.27
2022-11-22T01:53:39.953Z,942.27
2022-11-22T01:54:42.954Z,942.31
2022-11-22T01:55:39.942Z,942.33
2022-11-22T01:56:39.943Z,942.29
2022-11-22T01:57:39.953Z,942.24
2022-11-22T01:58:39.896Z,942.24
2022-11-22T01:59:39.884Z,942.27
2022-11-22T02:00:39.913Z,942.26
2022-11-22T02:01:39.929Z,942.32
2022-11-22T02:02:40.050Z,942.33
2022-11-22T02:03:39.864Z,942.30
2022-11-22T02:04:39.835Z,942.32
2022-11-22T02:05:39.821Z,942.33
2022-11-22T02:06:39.815Z,942.27
2022-11-22T02:07:39.866Z,942.25
2022-11-22T02:08:39.815Z,942.34
2022-11-22T02:09:42.815Z,942.29
2022-11-22T02:10:39.785Z,942.30
2022-11-22T02:11:39.764Z,942.32
2022-11-22T02:12:39.785Z,942.29
2022-11-22T02:13:39.907Z,942.28
2022-11-22T02:14:39.757Z,942.23
2022-11-22T02:15:39.754Z,942.25
2022-11-22T02:16:39.794Z,942.15
2022-11-22T02:17:39.727Z,942.15
2022-11-22T02:18:39.689Z,942.16
2022-11-22T02:19:39.708Z,942.14
2022-11-22T02:20:39.664Z,942.11
2022-11-22T02:21:39.681Z,942.08
2022-11-22T02:22:39.678Z,942.10
2022-11-22T02:23:39.683Z,942.12
2022-11-22T02:24:42.657Z,942.13
2022-11-22T02:25:39.636Z,942.16
2022-11-22T02:26:39.608Z,942.12
2022-11-22T02:27:39.632Z,942.18
2022-11-22T02:28:39.586Z,942.21
2022-11-22T02:29:39.579Z,942.26
2022-11-22T02:30:39.569Z,942.32
2022-11-22T02:31:39.558Z,942.41
2022-11-22T02:32:39.593Z,942.39
2022-11-22T02:33:39.557Z,942.40
2022-11-22T02:34:39.558Z,942.41
2022-11-22T02:35:39.520Z,942.40
2022-11-22T02:36:39.572Z,942.39
2022-11-22T02:37:39.566Z,942.37
2022-11-22T02:38:39.522Z,942.41
2022-11-22T02:39:42.484Z,942.37
2022-11-22T02:40:39.529Z,942.46
2022-11-22T02:41:39.529Z,942.43
2022-11-22T02:42:39.473Z,942.42
2022-11-22T02:43:39.469Z,942.47
2022-11-22T02:44:39.452Z,942.46
2022-11-22T02:45:39.437Z,942.45
2022-11-22T02:46:39.453Z,942.49
2022-11-22T02:47:39.401Z,942.50
2022-11-22T02:48:39.394Z,942.49
2022-11-22T02:49:39.403Z,942.51
2022-11-22T02:50:39.357Z,942.53
2022-11-22T02:51:39.582Z,942.54
2022-11-22T02:52:39.345Z,942.57
2022-11-22T02:53:39.367Z,942.59
2022-11-22T02:54:42.345Z,942.53
2022-11-22T02:55:39.354Z,942.55
2022-11-22T02:56:39.307Z,942.54
2022-11-22T02:57:39.321Z,942.55
2022-11-22T02:58:39.314Z,942.52
2022-11-22T02:59:39.263Z,942.52
2022-11-22T03:00:39.344Z,942.51
2022-11-22T03:01:39.315Z,942.49
2022-11-22T03:02:39.412Z,942.49
2022-11-22T03:03:39.257Z,942.52
2022-11-22T03:04:39.259Z,942.47
2022-11-22T03:05:39.235Z,942.50
2022-11-22T03:06:39.205Z,942.48
2022-11-22T03:07:39.238Z,942.46
2022-11-22T03:08:39.203Z,942.42
2022-11-22T03:09:42.171Z,942.42
2022-11-22T03:10:39.197Z,942.40
2022-11-22T03:11:39.173Z,942.44
2022-11-22T03:12:39.165Z,942.42
2022-11-22T03:13:39.144Z,942.46
2022-11-22T03:14:39.144Z,942.46
2022-11-22T03:15:39.106Z,942.46
2022-11-22T03:16:39.122Z,942.45
2022-11-22T03:17:39.118Z,942.44
2022-11-22T03:18:39.082Z,942.46
2022-11-22T03:19:39.097Z,942.45
2022-11-22T03:20:39.144Z,942.46
2022-11-22T03:21:39.069Z,942.46
2022-11-22T03:22:39.066Z,942.48
2022-11-22T03:23:39.065Z,942.50
2022-11-22T03:24:42.015Z,942.49
2022-11-22T03:25:39.069Z,942.51
2022-11-22T03:26:39.019Z,942.48
2022-11-22T03:27:38.979Z,942.45
2022-11-22T03:28:38.980Z,942.45
2022-11-22T03:29:38.989Z,942.47
2022-11-22T03:30:38.979Z,942.44
2022-11-22T03:31:38.991Z,942.49
2022-11-22T03:32:38.981Z,942.46
2022-11-22T03:33:39.111Z,942.50
2022-11-22T03:34:38.911Z,942.47
2022-11-22T03:35:38.912Z,942.41
2022-11-22T03:36:38.919Z,942.44
2022-11-22T03:37:38.872Z,942.43
2022-11-22T03:38:38.868Z,942.43
2022-11-22T03:39:41.880Z,942.46
2022-11-22T03:40:38.891Z,942.47
2022-11-22T03:41:38.830Z,942.45
2022-11-22T03:42:38.829Z,942.39
2022-11-22T03:43:38.851Z,942.43
2022-11-22T03:44:38.841Z,942.41
2022-11-22T03:45:38.802Z,942.34
2022-11-22T03:46:38.791Z,942.39
2022-11-22T03:47:38.825Z,942.36
2022-11-22T03:48:38.761Z,942.29
2022-11-22T03:49:38.784Z,942.29
2022-11-22T03:50:38.752Z,942.30
2022-11-22T03:51:38.782Z,942.34
2022-11-22T03:52:38.752Z,942.35
2022-11-22T03:53:38.734Z,942.34
2022-11-22T03:54:41.773Z,942.40
2022-11-22T03:55:38.736Z,942.40
2022-11-22T03:56:38.684Z,942.43
2022-11-22T03:57:38.724Z,942.42
2022-11-22T03:58:38.686Z,942.47
2022-11-22T03:59:38.655Z,942.45
2022-11-22T04:00:38.691Z,942.44
2022-11-22T04:01:38.689Z,942.44
2022-11-22T04:02:38.637Z,942.36
2022-11-22T04:03:38.617Z,942.37
2022-11-22T04:04:38.602Z,942.38
2022-11-22T04:05:38.604Z,942.41
2022-11-22T04:06:38.611Z,942.40
2022-11-22T04:07:38.652Z,942.39
2022-11-22T04:08:38.810Z,942.36
2022-11-22T04:09:41.577Z,942.43
2022-11-22T04:10:38.577Z,942.46
2022-11-22T04:11:38.591Z,942.46
2022-11-22T04:12:38.556Z,942.53
2022-11-22T04:13:38.527Z,942.54
2022-11-22T04:14:38.602Z,942.59
2022-11-22T04:15:38.533Z,942.59
2022-11-22T04:16:38.598Z,942.65
2022-11-22T04:17:38.626Z,942.63
2022-11-22T04:18:38.513Z,942.62
2022-11-22T04:19:38.656Z,942.60
2022-11-22T04:20:38.607Z,942.60
2022-11-22T04:21:38.499Z,942.60
2022-11-22T04:22:38.419Z,942.62
2022-11-22T04:23:38.441Z,942.62
2022-11-22T04:24:41.427Z,942.63
2022-11-22T04:25:38.415Z,942.72
2022-11-22T04:26:39.412Z,942.67
2022-11-22T04:27:38.413Z,942.63
2022-11-22T04:29:08.106Z,942.69
2022-11-22T04:29:39.350Z,942.69
2022-11-22T04:30:38.359Z,942.70
2022-11-22T04:31:38.481Z,942.67
2022-11-22T04:32:38.323Z,942.66
2022-11-22T04:33:38.335Z,942.68
2022-11-22T04:34:38.323Z,942.71
2022-11-22T04:35:38.290Z,942.65
2022-11-22T04:36:38.323Z,942.67
2022-11-22T04:37:38.313Z,942.68
2022-11-22T04:38:38.289Z,942.64
2022-11-22T04:39:41.275Z,942.59
2022-11-22T04:40:38.255Z,942.58
2022-11-22T04:41:38.291Z,942.63
2022-11-22T04:42:38.241Z,942.63
2022-11-22T04:43:38.271Z,942.68
2022-11-22T04:44:38.217Z,942.60
2022-11-22T04:45:38.225Z,942.63
2022-11-22T04:46:38.198Z,942.65
2022-11-22T04:47:38.192Z,942.68
2022-11-22T04:48:39.173Z,942.67
2022-11-22T04:49:38.163Z,942.68
2022-11-22T04:50:38.164Z,942.69
2022-11-22T04:51:38.295Z,942.71
2022-11-22T04:52:38.136Z,942.73
2022-11-22T04:53:38.134Z,942.68
2022-11-22T04:54:41.095Z,942.75
2022-11-22T04:55:38.117Z,942.69
2022-11-22T04:56:38.065Z,942.66
2022-11-22T04:57:38.069Z,942.70
2022-11-22T04:58:38.077Z,942.69
2022-11-22T04:59:38.987Z,942.71
2022-11-22T05:00:38.094Z,942.67
2022-11-22T05:01:38.123Z,942.74
2022-11-22T05:02:38.028Z,942.70
2022-11-22T05:03:38.000Z,942.74
2022-11-22T05:04:38.013Z,942.75
2022-11-22T05:05:38.982Z,942.81
2022-11-22T05:06:37.986Z,942.83
2022-11-22T05:07:38.126Z,942.81
2022-11-22T05:08:37.948Z,942.85
2022-11-22T05:09:40.966Z,942.86
2022-11-22T05:10:37.941Z,942.79
2022-11-22T05:11:37.942Z,942.79
2022-11-22T05:12:37.970Z,942.83
2022-11-22T05:13:37.918Z,942.81
2022-11-22T05:14:37.927Z,942.83
2022-11-22T05:15:37.892Z,942.82
2022-11-22T05:16:37.871Z,942.86
2022-11-22T05:17:37.855Z,942.85
2022-11-22T05:18:37.860Z,942.85
2022-11-22T05:19:37.868Z,942.91
2022-11-22T05:20:38.851Z,942.90
2022-11-22T05:21:37.863Z,942.94
2022-11-22T05:22:37.820Z,942.93
2022-11-22T05:23:37.855Z,942.94
2022-11-22T05:24:41.813Z,942.94
2022-11-22T05:25:37.782Z,942.94
2022-11-22T05:26:37.790Z,942.93
2022-11-22T05:27:37.779Z,942.95
2022-11-22T05:28:37.777Z,942.95
2022-11-22T05:29:37.758Z,942.97
2022-11-22T05:30:37.752Z,942.99
2022-11-22T05:31:37.710Z,943.04
2022-11-22T05:32:37.702Z,943.03
2022-11-22T05:33:37.696Z,943.07
2022-11-22T05:34:37.684Z,943.05
2022-11-22T05:35:37.672Z,943.03
2022-11-22T05:36:37.679Z,943.02
2022-11-22T05:37:37.724Z,943.04
2022-11-22T05:38:37.634Z,943.04
2022-11-22T05:39:40.655Z,943.07
2022-11-22T05:40:37.634Z,943.07
2022-11-22T05:41:37.638Z,943.13
2022-11-22T05:42:37.607Z,943.12
2022-11-22T05:43:37.619Z,943.17
2022-11-22T05:44:37.576Z,943.17
2022-11-22T05:45:37.595Z,943.17
2022-11-22T05:46:37.554Z,943.14
2022-11-22T05:47:37.567Z,943.21
2022-11-22T05:48:37.691Z,943.21
2022-11-22T05:49:37.565Z,943.27
2022-11-22T05:50:37.516Z,943.22
2022-11-22T05:51:37.504Z,943.28
2022-11-22T05:52:37.548Z,943.30
2022-11-22T05:53:37.578Z,943.27
2022-11-22T05:54:41.227Z,943.33
2022-11-22T05:55:37.509Z,943.35
2022-11-22T05:56:37.543Z,943.38
2022-11-22T05:57:37.481Z,943.40
2022-11-22T05:58:37.558Z,943.43
2022-11-22T05:59:41.186Z,943.40
2022-11-22T06:00:37.509Z,943.44
2022-11-22T06:01:37.474Z,943.45
2022-11-22T06:02:37.483Z,943.45
2022-11-22T06:03:37.422Z,943.45
2022-11-22T06:04:37.408Z,943.48
2022-11-22T06:05:37.364Z,943.51
2022-11-22T06:06:37.380Z,943.54
2022-11-22T06:07:37.530Z,943.54
2022-11-22T06:08:37.328Z,943.53
2022-11-22T06:09:40.329Z,943.51
2022-11-22T06:10:38.350Z,943.54
2022-11-22T06:11:37.336Z,943.56
2022-11-22T06:12:37.291Z,943.58
2022-11-22T06:13:37.240Z,943.58
2022-11-22T06:14:42.742Z,943.63
2022-11-22T06:15:37.281Z,943.63
2022-11-22T06:16:37.260Z,943.65
2022-11-22T06:17:37.233Z,943.67
2022-11-22T06:18:37.215Z,943.66
2022-11-22T06:19:37.361Z,943.65
2022-11-22T06:20:37.251Z,943.66
2022-11-22T06:21:37.174Z,943.66
2022-11-22T06:22:37.164Z,943.71
2022-11-22T06:23:37.151Z,943.70
2022-11-22T06:24:40.243Z,943.70
2022-11-22T06:25:37.159Z,943.67
2022-11-22T06:26:39.436Z,943.72
2022-11-22T06:27:37.106Z,943.69
2022-11-22T06:28:37.074Z,943.69
2022-11-22T06:29:37.318Z,943.71
2022-11-22T06:30:37.061Z,943.73
2022-11-22T06:31:37.144Z,943.74
2022-11-22T06:32:37.035Z,943.78
2022-11-22T06:33:37.036Z,943.81
2022-11-22T06:34:37.079Z,943.83
2022-11-22T06:35:37.039Z,943.82
2022-11-22T06:36:37.015Z,943.88
2022-11-22T06:37:36.981Z,943.89
2022-11-22T06:38:36.998Z,943.90
2022-11-22T06:39:39.974Z,943.88
2022-11-22T06:40:37.003Z,943.87
2022-11-22T06:41:36.952Z,943.90
2022-11-22T06:42:36.978Z,943.85
2022-11-22T06:43:36.950Z,943.89
2022-11-22T06:44:37.969Z,943.91
2022-11-22T06:45:36.899Z,943.96
2022-11-22T06:46:36.886Z,943.96
2022-11-22T06:47:36.911Z,944.03
2022-11-22T06:48:36.867Z,944.02
2022-11-22T06:49:36.874Z,944.05
2022-11-22T06:50:36.876Z,944.09
2022-11-22T06:51:36.890Z,944.12
2022-11-22T06:52:36.833Z,944.13
2022-11-22T06:53:47.191Z,944.18
2022-11-22T06:54:39.830Z,944.21
2022-11-22T06:55:50.157Z,944.24
2022-11-22T06:56:36.791Z,944.27
2022-11-22T06:57:36.800Z,944.27
2022-11-22T06:58:36.803Z,944.27
2022-11-22T06:59:36.751Z,944.28
2022-11-22T07:00:36.779Z,944.33
2022-11-22T07:01:36.779Z,944.32
2022-11-22T07:02:36.903Z,944.30
2022-11-22T07:03:36.720Z,944.37
2022-11-22T07:04:46.635Z,944.36
2022-11-22T07:05:37.720Z,944.40
2022-11-22T07:06:36.712Z,944.41
2022-11-22T07:07:36.768Z,944.41
2022-11-22T07:08:36.680Z,944.36
2022-11-22T07:09:39.719Z,944.39
2022-11-22T07:10:36.717Z,944.39
2022-11-22T07:11:36.630Z,944.39
2022-11-22T07:12:36.639Z,944.40
2022-11-22T07:13:36.609Z,944.41
2022-11-22T07:14:36.604Z,944.40
2022-11-22T07:15:36.625Z,944.40
2022-11-22T07:16:36.624Z,944.41
2022-11-22T07:17:36.762Z,944.45
2022-11-22T07:18:36.566Z,944.47
2022-11-22T07:19:36.576Z,944.42
2022-11-22T07:20:36.532Z,944.45
2022-11-22T07:21:36.544Z,944.47
2022-11-22T07:22:36.521Z,944.46
2022-11-22T07:23:36.536Z,944.51
2022-11-22T07:24:39.534Z,944.52
2022-11-22T07:25:36.497Z,944.53
2022-11-22T07:26:36.474Z,944.50
2022-11-22T07:27:36.466Z,944.50
2022-11-22T07:28:36.525Z,944.47
2022-11-22T07:29:36.465Z,944.51
2022-11-22T07:30:39.863Z,944.50
2022-11-22T07:31:36.451Z,944.59
2022-11-22T07:32:36.416Z,944.54
2022-11-22T07:33:36.447Z,944.53
2022-11-22T07:34:36.425Z,944.55
2022-11-22T07:35:36.445Z,944.54
2022-11-22T07:36:36.404Z,944.56
2022-11-22T07:37:36.407Z,944.60
2022-11-22T07:38:36.374Z,944.60
2022-11-22T07:39:39.441Z,944.58
2022-11-22T07:40:36.386Z,944.64
2022-11-22T07:41:36.346Z,944.65
2022-11-22T07:42:36.319Z,944.66
2022-11-22T07:43:36.342Z,944.68
2022-11-22T07:44:36.501Z,944.65
2022-11-22T07:45:36.320Z,944.64
2022-11-22T07:46:36.271Z,944.64
2022-11-22T07:47:36.335Z,944.63
2022-11-22T07:48:36.246Z,944.62
2022-11-22T07:49:36.239Z,944.61
2022-11-22T07:50:36.286Z,944.62
2022-11-22T07:51:36.249Z,944.61
2022-11-22T07:52:36.243Z,944.63
2022-11-22T07:53:36.228Z,944.59
2022-11-22T07:54:39.203Z,944.56
2022-11-22T07:55:36.228Z,944.59
2022-11-22T07:56:36.177Z,944.59
2022-11-22T07:57:36.201Z,944.57
2022-11-22T07:58:36.153Z,944.59
2022-11-22T07:59:36.156Z,944.56
2022-11-22T08:00:36.127Z,944.56
2022-11-22T08:01:36.262Z,944.56
2022-11-22T08:02:36.132Z,944.62
2022-11-22T08:03:36.112Z,944.65
2022-11-22T08:04:36.092Z,944.66
2022-11-22T08:05:36.075Z,944.66
2022-11-22T08:06:36.231Z,944.67
2022-11-22T08:07:36.119Z,944.69
2022-11-22T08:08:36.051Z,944.70
2022-11-22T08:09:39.062Z,944.68
2022-11-22T08:10:36.061Z,944.70
2022-11-22T08:11:36.060Z,944.70
2022-11-22T08:12:36.013Z,944.71
2022-11-22T08:13:35.996Z,944.70
2022-11-22T08:14:36.161Z,944.71
2022-11-22T08:15:36.013Z,944.68
2022-11-22T08:16:36.023Z,944.66
2022-11-22T08:17:35.982Z,944.63
2022-11-22T08:18:35.973Z,944.63
2022-11-22T08:19:35.949Z,944.63
2022-11-22T08:20:35.954Z,944.65
2022-11-22T08:21:35.993Z,944.64
2022-11-22T08:22:35.927Z,944.62
2022-11-22T08:23:35.923Z,944.62
2022-11-22T08:24:38.915Z,944.66
2022-11-22T08:25:35.917Z,944.66
2022-11-22T08:26:35.893Z,944.64
2022-11-22T08:27:35.880Z,944.65
2022-11-22T08:28:35.835Z,944.64
2022-11-22T08:29:35.844Z,944.70
2022-11-22T08:30:35.837Z,944.63
2022-11-22T08:31:35.804Z,944.63
2022-11-22T08:32:35.842Z,944.61
2022-11-22T08:33:35.818Z,944.60
2022-11-22T08:34:38.144Z,944.63
2022-11-22T08:35:35.797Z,944.62
2022-11-22T08:36:35.799Z,944.58
2022-11-22T08:37:35.773Z,944.59
2022-11-22T08:38:35.764Z,944.56
2022-11-22T08:39:38.775Z,944.51
2022-11-22T08:40:40.869Z,944.52
2022-11-22T08:41:35.699Z,944.55
2022-11-22T08:42:35.741Z,944.51
2022-11-22T08:43:35.696Z,944.50
2022-11-22T08:44:35.726Z,944.52
2022-11-22T08:45:35.666Z,944.53
2022-11-22T08:46:35.707Z,944.53
2022-11-22T08:47:35.669Z,944.53
2022-11-22T08:48:35.669Z,944.59
2022-11-22T08:49:35.629Z,944.62
2022-11-22T08:50:35.619Z,944.60
2022-11-22T08:51:35.720Z,944.61
2022-11-22T08:52:35.627Z,944.68
2022-11-22T08:53:35.596Z,944.65
2022-11-22T08:54:38.728Z,944.69
2022-11-22T08:55:35.583Z,944.74
2022-11-22T08:56:35.580Z,944.72
2022-11-22T08:57:35.582Z,944.76
2022-11-22T08:58:35.599Z,944.76
2022-11-22T08:59:35.618Z,944.75
2022-11-22T09:00:35.541Z,944.78
2022-11-22T09:01:35.653Z,944.75
2022-11-22T09:02:35.516Z,944.81
2022-11-22T09:03:35.474Z,944.82
2022-11-22T09:04:35.478Z,944.81
2022-11-22T09:05:36.504Z,944.78
2022-11-22T09:08:38.607Z,944.81
2022-11-22T09:09:39.472Z,944.84
2022-11-22T09:10:35.452Z,944.86
2022-11-22T09:11:35.422Z,944.85
2022-11-22T09:12:35.492Z,944.86
2022-11-22T09:13:35.404Z,944.84
2022-11-22T09:14:35.376Z,944.85
2022-11-22T09:15:35.389Z,944.85
2022-11-22T09:16:35.344Z,944.83
2022-11-22T09:17:35.335Z,944.89
2022-11-22T09:18:35.361Z,944.87
2022-11-22T09:19:35.393Z,944.88
2022-11-22T09:20:35.357Z,944.91
2022-11-22T09:21:35.295Z,944.89
2022-11-22T09:22:35.299Z,944.92
2022-11-22T09:23:35.276Z,944.96
2022-11-22T09:24:38.301Z,945.01
2022-11-22T09:25:35.282Z,945.00
2022-11-22T09:26:35.283Z,945.02
2022-11-22T09:27:35.239Z,944.97
2022-11-22T09:28:35.236Z,945.06
2022-11-22T09:29:35.214Z,945.04
2022-11-22T09:30:35.211Z,945.04
2022-11-22T09:31:35.197Z,944.99
2022-11-22T09:32:35.224Z,945.01
2022-11-22T09:33:35.219Z,945.00
2022-11-22T09:34:35.189Z,944.95
2022-11-22T09:35:35.295Z,944.98
2022-11-22T09:36:35.188Z,944.97
2022-11-22T09:37:35.150Z,944.98
2022-11-22T09:38:35.132Z,945.05
2022-11-22T09:39:38.133Z,945.03
2022-11-22T09:40:35.149Z,945.03
2022-11-22T09:41:35.122Z,945.05
2022-11-22T09:42:35.084Z,945.05
2022-11-22T09:43:35.077Z,945.05
2022-11-22T09:44:35.075Z,945.06
2022-11-22T09:45:35.048Z,945.02
2022-11-22T09:46:35.081Z,945.03
2022-11-22T09:47:35.057Z,945.04
2022-11-22T09:48:35.052Z,945.01
2022-11-22T09:49:35.044Z,945.04
2022-11-22T09:50:35.003Z,945.04
2022-11-22T09:51:35.022Z,945.07
2022-11-22T09:52:34.980Z,945.12
2022-11-22T09:53:34.979Z,945.13
2022-11-22T09:54:37.988Z,945.14
2022-11-22T09:55:34.999Z,945.19
2022-11-22T09:56:34.937Z,945.20
2022-11-22T09:57:34.971Z,945.30
2022-11-22T09:58:34.921Z,945.27
2022-11-22T09:59:34.902Z,945.31
2022-11-22T10:00:34.901Z,945.29
2022-11-22T10:01:35.083Z,945.29
2022-11-22T10:02:43.479Z,945.31
2022-11-22T10:03:35.901Z,945.27
2022-11-22T10:04:34.868Z,945.27
2022-11-22T10:05:34.841Z,945.27
2022-11-22T10:06:34.932Z,945.38
2022-11-22T10:07:34.878Z,945.33
2022-11-22T10:08:34.815Z,945.26
2022-11-22T10:09:37.804Z,945.30
2022-11-22T10:10:34.816Z,945.29
2022-11-22T10:11:36.626Z,945.33
2022-11-22T10:12:34.805Z,945.34
2022-11-22T10:13:34.773Z,945.29
2022-11-22T10:14:34.791Z,945.28
2022-11-22T10:15:34.751Z,945.26
2022-11-22T10:16:34.806Z,945.28
2022-11-22T10:17:34.796Z,945.31
2022-11-22T10:18:34.722Z,945.29
2022-11-22T10:19:34.767Z,945.36
2022-11-22T10:20:34.714Z,945.30
2022-11-22T10:21:34.714Z,945.37
2022-11-22T10:22:34.731Z,945.37
2022-11-22T10:23:34.738Z,945.32
2022-11-22T10:24:37.656Z,945.37
2022-11-22T10:25:34.674Z,945.36
2022-11-22T10:26:34.692Z,945.30
2022-11-22T10:27:34.672Z,945.29
2022-11-22T10:28:34.713Z,945.36
2022-11-22T10:29:34.657Z,945.33
2022-11-22T10:30:34.803Z,945.31
2022-11-22T10:31:34.629Z,945.30
2022-11-22T10:32:34.681Z,945.29
2022-11-22T10:33:34.591Z,945.28
2022-11-22T10:34:34.588Z,945.28
2022-11-22T10:35:34.582Z,945.28
2022-11-22T10:36:34.534Z,945.23
2022-11-22T10:37:34.551Z,945.28
2022-11-22T10:38:34.558Z,945.24
2022-11-22T10:39:38.004Z,945.23
2022-11-22T10:40:34.512Z,945.24
2022-11-22T10:41:34.519Z,945.28
2022-11-22T10:42:34.493Z,945.23
2022-11-22T10:43:34.480Z,945.24
2022-11-22T10:44:34.450Z,945.28
2022-11-22T10:45:34.495Z,945.28
2022-11-22T10:46:34.485Z,945.28
2022-11-22T10:47:34.831Z,945.31
2022-11-22T10:48:34.437Z,945.23
2022-11-22T10:49:34.404Z,945.29
2022-11-22T10:50:34.440Z,945.28
2022-11-22T10:51:34.421Z,945.29
2022-11-22T10:52:34.362Z,945.27
2022-11-22T10:53:34.351Z,945.31
2022-11-22T10:54:37.347Z,945.28
2022-11-22T10:55:34.388Z,945.25
2022-11-22T10:56:34.323Z,945.28
2022-11-22T10:57:34.353Z,945.24
2022-11-22T10:58:34.323Z,945.24
2022-11-22T10:59:34.947Z,945.25
2022-11-22T11:00:34.314Z,945.29
2022-11-22T11:01:34.384Z,945.24
2022-11-22T11:02:34.271Z,945.24
2022-11-22T11:03:34.288Z,945.23
2022-11-22T11:04:34.336Z,945.29
2022-11-22T11:05:34.262Z,945.31
2022-11-22T11:06:56.900Z,945.28
2022-11-22T11:07:35.308Z,945.26
2022-11-22T11:09:02.567Z,945.23
2022-11-22T11:10:35.305Z,945.30
2022-11-22T11:11:34.165Z,945.30
2022-11-22T11:12:34.200Z,945.28
2022-11-22T11:13:34.155Z,945.25
2022-11-22T11:14:34.145Z,945.29
2022-11-22T11:15:34.178Z,945.27
2022-11-22T11:16:34.119Z,945.26
2022-11-22T11:17:34.218Z,945.27
2022-11-22T11:18:34.107Z,945.30
2022-11-22T11:19:34.098Z,945.34
2022-11-22T11:20:34.119Z,945.29
2022-11-22T11:21:34.068Z,945.29
2022-11-22T11:23:06.659Z,945.29
2022-11-22T11:23:35.056Z,945.31
2022-11-22T11:24:37.072Z,945.29
2022-11-22T11:25:34.077Z,945.32
2022-11-22T11:26:34.046Z,945.29
2022-11-22T11:27:34.040Z,945.27
2022-11-22T11:28:34.099Z,945.22
2022-11-22T11:29:37.619Z,945.28
2022-11-22T11:30:34.011Z,945.23
2022-11-22T11:31:33.994Z,945.18
2022-11-22T11:32:33.957Z,945.19
2022-11-22T11:33:33.969Z,945.22
2022-11-22T11:34:33.974Z,945.16
2022-11-22T11:35:33.934Z,945.24
2022-11-22T11:36:33.920Z,945.24
2022-11-22T11:37:34.056Z,945.21
2022-11-22T11:38:33.916Z,945.22
2022-11-22T11:39:41.904Z,945.24
2022-11-22T11:40:33.942Z,945.28
2022-11-22T11:41:36.268Z,945.21
2022-11-22T11:42:33.891Z,945.15
2022-11-22T11:43:33.870Z,945.12
2022-11-22T11:44:33.974Z,945.12
2022-11-22T11:45:33.853Z,945.14
2022-11-22T11:46:33.822Z,945.13
2022-11-22T11:47:33.826Z,945.09
2022-11-22T11:48:33.796Z,945.09
2022-11-22T11:49:34.125Z,945.07
2022-11-22T11:50:33.816Z,945.02
2022-11-22T11:51:33.770Z,945.08
2022-11-22T11:52:33.782Z,945.04
2022-11-22T11:53:33.750Z,945.00
2022-11-22T11:54:36.774Z,945.04
2022-11-22T11:55:33.777Z,945.01
2022-11-22T11:56:33.723Z,945.00
2022-11-22T11:57:33.720Z,944.96
2022-11-22T11:58:33.698Z,944.97
2022-11-22T11:59:33.933Z,944.97
2022-11-22T12:00:33.717Z,944.94
2022-11-22T12:01:38.545Z,944.95
2022-11-22T12:02:33.739Z,944.95
2022-11-22T12:03:33.644Z,944.92
2022-11-22T12:04:33.994Z,944.88
2022-11-22T12:05:33.635Z,944.88
2022-11-22T12:06:33.652Z,944.85
2022-11-22T12:07:33.718Z,944.85
2022-11-22T12:08:33.615Z,944.84
2022-11-22T12:09:36.578Z,944.87
2022-11-22T12:10:33.618Z,944.85
2022-11-22T12:11:33.614Z,944.86
2022-11-22T12:12:33.559Z,944.86
2022-11-22T12:13:35.304Z,944.77
2022-11-22T12:15:03.295Z,944.82
2022-11-22T12:15:34.530Z,944.74
2022-11-22T12:16:33.513Z,944.77
2022-11-22T12:17:33.530Z,944.80
2022-11-22T12:18:33.590Z,944.79
2022-11-22T12:19:33.515Z,944.79
2022-11-22T12:20:33.468Z,944.74
2022-11-22T12:21:33.497Z,944.79
2022-11-22T12:23:34.445Z,944.74
2022-11-22T12:24:57.323Z,944.74
2022-11-22T12:25:34.958Z,944.74
2022-11-22T12:26:33.412Z,944.78
2022-11-22T12:27:33.599Z,944.74
2022-11-22T12:28:33.403Z,944.71
2022-11-22T12:29:33.420Z,944.74
2022-11-22T12:30:33.380Z,944.68
2022-11-22T12:31:33.385Z,944.72
2022-11-22T12:32:33.384Z,944.70